Terminal Aerodrome Forecast
Issued by NWS Bismarck, ND

Home | Current Version | Previous Version | Graphics & Text | Print | Product List | Glossary On
Versions: 1 2 3 4 5 6 7 8 9 10 11 12 13 14 15 16 17
000
FTUS43 KBIS 221120
TAFBIS
TAF
KBIS 221120Z 2212/2312 02015G22KT P6SM BKN080
     FM221500 03015G23KT P6SM VCTS BKN025CB OVC130
     FM222000 35013G21KT P6SM OVC015
     FM230800 35007KT P6SM OVC015=

USA.gov is the U.S. government's official web portal to all federal, state and local government web resources and services.